createdAt,value
2023-01-17T00:01:13.704Z,81.80
2023-01-17T00:04:04.079Z,82.30
2023-01-17T00:06:53.314Z,81.30
2023-01-17T00:09:43.349Z,81.70
2023-01-17T00:12:15.439Z,82.40
2023-01-17T00:14:46.232Z,82.30
2023-01-17T00:17:17.099Z,81.90
2023-01-17T00:20:06.287Z,81.40
2023-01-17T00:22:55.766Z,82.00
2023-01-17T00:25:47.544Z,81.60
2023-01-17T00:31:23.411Z,80.70
2023-01-17T00:33:53.786Z,82.90
2023-01-17T00:36:24.674Z,79.30
2023-01-17T00:38:55.515Z,81.10
2023-01-17T00:41:26.097Z,81.60
2023-01-17T00:47:17.344Z,82.40
2023-01-17T00:50:06.192Z,80.60
2023-01-17T00:52:55.185Z,81.10
2023-01-17T00:55:45.108Z,79.30
2023-01-17T00:58:34.894Z,77.70
2023-01-17T01:01:27.466Z,81.30
2023-01-17T01:04:16.567Z,80.60
2023-01-17T01:07:05.686Z,79.10
2023-01-17T01:12:56.005Z,82.50
2023-01-17T01:15:47.540Z,79.00
2023-01-17T01:18:36.700Z,80.40
2023-01-17T01:21:25.623Z,80.10
2023-01-17T01:24:15.806Z,79.80
2023-01-17T01:27:05.015Z,80.10
2023-01-17T01:29:54.091Z,81.40
2023-01-17T01:32:43.190Z,78.20
2023-01-17T01:35:15.399Z,77.50
2023-01-17T01:38:11.933Z,80.50
2023-01-17T01:43:56.923Z,79.20
2023-01-17T01:46:43.159Z,77.70
2023-01-17T01:49:22.081Z,77.70
2023-01-17T01:52:00.706Z,79.40
2023-01-17T01:54:59.438Z,81.10
2023-01-17T01:57:36.518Z,79.00
2023-01-17T02:00:28.424Z,79.10
2023-01-17T02:03:02.648Z,79.30
2023-01-17T02:05:36.826Z,81.20
2023-01-17T02:08:16.994Z,78.10
2023-01-17T02:10:48.006Z,80.20
2023-01-17T02:13:22.161Z,79.60
2023-01-17T02:16:11.027Z,79.70
2023-01-17T02:18:48.262Z,80.40
2023-01-17T02:21:57.832Z,78.60
2023-01-17T02:24:45.241Z,80.10
2023-01-17T02:27:32.481Z,78.10
2023-01-17T02:30:21.669Z,80.30
2023-01-17T02:33:00.032Z,78.30
2023-01-17T02:35:53.965Z,80.00
2023-01-17T02:38:50.145Z,79.60
2023-01-17T02:41:30.071Z,78.30
2023-01-17T02:44:05.702Z,79.40
2023-01-17T02:46:59.681Z,80.20
2023-01-17T02:49:34.831Z,79.10
2023-01-17T02:52:40.876Z,76.20
2023-01-17T02:59:14.490Z,77.20
2023-01-17T03:02:02.210Z,78.90
2023-01-17T03:04:46.196Z,77.60
2023-01-17T03:07:25.649Z,75.70
2023-01-17T03:10:05.105Z,78.50
2023-01-17T03:12:41.657Z,81.20
2023-01-17T03:15:14.603Z,78.30
2023-01-17T03:17:52.706Z,78.30
2023-01-17T03:20:23.905Z,79.60
2023-01-17T03:22:55.347Z,78.90
2023-01-17T03:25:26.321Z,75.90
2023-01-17T03:27:58.285Z,78.90
2023-01-17T03:30:31.739Z,76.30
2023-01-17T03:33:07.010Z,76.70
2023-01-17T03:35:38.022Z,79.80
2023-01-17T03:38:10.352Z,79.20
2023-01-17T03:40:43.432Z,75.30
2023-01-17T03:43:24.322Z,76.90
2023-01-17T03:46:03.622Z,79.40
2023-01-17T03:48:36.199Z,80.00
2023-01-17T03:51:07.470Z,78.10
2023-01-17T03:53:38.767Z,78.10
2023-01-17T03:56:10.385Z,76.40
2023-01-17T03:58:42.596Z,76.60
2023-01-17T04:01:15.108Z,79.30
2023-01-17T04:03:46.547Z,78.90
2023-01-17T04:06:17.672Z,78.90
2023-01-17T04:08:49.060Z,78.60
2023-01-17T04:11:23.376Z,79.40
2023-01-17T04:13:55.710Z,78.90
2023-01-17T04:16:31.270Z,78.80
2023-01-17T04:19:06.093Z,77.60
2023-01-17T04:21:39.117Z,79.00
2023-01-17T04:24:10.547Z,77.10
2023-01-17T04:26:41.921Z,75.10
2023-01-17T04:29:16.932Z,76.50
2023-01-17T04:32:17.161Z,78.70
2023-01-17T04:34:48.135Z,75.50
2023-01-17T04:37:19.273Z,75.60
2023-01-17T04:39:50.686Z,78.90
2023-01-17T04:42:21.697Z,78.60
2023-01-17T04:44:55.643Z,78.30
2023-01-17T04:47:26.019Z,79.00
2023-01-17T04:50:17.036Z,78.30
2023-01-17T04:52:48.366Z,76.60
2023-01-17T04:55:19.512Z,73.90
2023-01-17T04:57:50.825Z,78.00
2023-01-17T05:00:43.062Z,76.80
2023-01-17T05:03:14.382Z,79.50
2023-01-17T05:06:05.870Z,77.90
2023-01-17T05:08:37.226Z,75.30
2023-01-17T05:11:09.827Z,78.00
2023-01-17T05:13:40.569Z,78.90
2023-01-17T05:16:21.816Z,76.60
2023-01-17T05:18:58.164Z,76.00
2023-01-17T05:21:30.633Z,77.50
2023-01-17T05:27:09.591Z,76.40
2023-01-17T05:29:41.248Z,78.50
2023-01-17T05:38:06.351Z,74.70
2023-01-17T05:40:40.666Z,78.90
2023-01-17T05:43:13.129Z,78.40
2023-01-17T05:45:46.360Z,78.20
2023-01-17T05:48:17.983Z,77.60
2023-01-17T05:50:51.417Z,78.00
2023-01-17T05:53:22.678Z,78.70
2023-01-17T05:55:56.099Z,78.80
2023-01-17T05:58:28.631Z,78.50
2023-01-17T06:01:02.556Z,77.50
2023-01-17T06:03:36.917Z,76.10
2023-01-17T06:06:08.456Z,78.40
2023-01-17T06:08:44.500Z,76.90
2023-01-17T06:11:16.041Z,77.70
2023-01-17T06:13:47.285Z,77.70
2023-01-17T06:16:18.445Z,77.30
2023-01-17T06:18:49.547Z,76.30
2023-01-17T06:21:21.978Z,78.90
2023-01-17T06:23:53.114Z,78.90
2023-01-17T06:26:27.531Z,78.40
2023-01-17T06:28:59.384Z,77.60
2023-01-17T06:31:30.650Z,79.10
2023-01-17T06:34:42.790Z,78.20
2023-01-17T06:37:15.092Z,78.30
2023-01-17T06:39:48.610Z,78.20
2023-01-17T06:42:40.664Z,78.90
2023-01-17T06:45:12.214Z,79.10
2023-01-17T06:47:44.347Z,79.20
2023-01-17T06:59:52.591Z,79.10
2023-01-17T07:02:23.781Z,78.50
2023-01-17T07:07:50.214Z,79.50
2023-01-17T07:10:21.526Z,79.30
2023-01-17T07:12:52.730Z,79.20
2023-01-17T07:15:31.145Z,78.80
2023-01-17T07:18:04.097Z,79.60
2023-01-17T07:20:56.946Z,79.60
2023-01-17T07:23:48.732Z,79.70
2023-01-17T07:26:20.137Z,78.60
2023-01-17T07:28:53.580Z,79.70
2023-01-17T07:34:36.943Z,79.60
2023-01-17T07:37:47.404Z,79.60
2023-01-17T07:40:20.559Z,79.80
2023-01-17T07:43:20.685Z,79.50
2023-01-17T07:46:18.350Z,79.90
2023-01-17T07:48:52.996Z,78.50
2023-01-17T07:51:24.277Z,78.90
2023-01-17T07:53:55.552Z,78.10
2023-01-17T07:56:28.707Z,78.50
2023-01-17T08:02:43.371Z,76.10
2023-01-17T08:09:42.239Z,79.20
2023-01-17T08:12:14.385Z,79.90
2023-01-17T08:14:46.603Z,79.90
2023-01-17T08:17:43.225Z,78.60
2023-01-17T08:20:51.907Z,80.30
2023-01-17T08:23:23.618Z,80.30
2023-01-17T08:25:54.660Z,80.20
2023-01-17T08:28:26.663Z,79.30
2023-01-17T08:31:17.873Z,79.30
2023-01-17T08:34:09.278Z,77.90
2023-01-17T08:36:40.399Z,80.00
2023-01-17T08:39:14.428Z,78.60
2023-01-17T08:41:45.610Z,79.20
2023-01-17T08:44:17.368Z,80.50
2023-01-17T08:46:48.627Z,79.90
2023-01-17T08:49:19.893Z,80.10
2023-01-17T08:51:59.633Z,78.20
2023-01-17T08:54:31.955Z,80.00
2023-01-17T08:57:05.418Z,80.00
2023-01-17T08:59:36.522Z,78.60
2023-01-17T09:02:16.435Z,79.20
2023-01-17T09:04:51.543Z,79.90
2023-01-17T09:07:23.754Z,78.00
2023-01-17T09:10:18.696Z,79.50
2023-01-17T09:12:49.643Z,80.10
2023-01-17T09:15:26.718Z,80.00
2023-01-17T09:18:02.876Z,79.50
2023-01-17T09:20:33.947Z,80.00
2023-01-17T09:26:25.931Z,80.30
2023-01-17T09:29:19.359Z,79.90
2023-01-17T09:32:12.982Z,80.50
2023-01-17T09:34:44.351Z,80.40
2023-01-17T09:37:35.250Z,79.90
2023-01-17T09:40:07.555Z,80.60
2023-01-17T09:42:45.413Z,80.50
2023-01-17T09:45:40.890Z,79.00
2023-01-17T09:48:38.391Z,79.50
2023-01-17T09:51:47.601Z,80.00
2023-01-17T09:54:40.256Z,80.50
2023-01-17T10:00:34.317Z,80.40
2023-01-17T10:03:28.473Z,80.60
2023-01-17T10:06:27.130Z,80.00
2023-01-17T10:09:43.168Z,80.60
2023-01-17T10:12:17.527Z,80.70
2023-01-17T10:16:00.806Z,80.80
2023-01-17T10:21:45.963Z,80.80
2023-01-17T10:24:47.001Z,80.90
2023-01-17T10:27:32.307Z,81.00
2023-01-17T10:30:07.231Z,81.00
2023-01-17T10:32:47.059Z,81.20
2023-01-17T10:35:49.058Z,81.20
2023-01-17T10:38:21.662Z,81.20
2023-01-17T10:40:58.887Z,81.30
2023-01-17T10:43:42.021Z,81.30
2023-01-17T10:46:39.915Z,81.40
2023-01-17T10:49:26.656Z,81.50
2023-01-17T10:52:33.377Z,81.60
2023-01-17T10:55:52.147Z,81.70
2023-01-17T10:58:43.933Z,81.70
2023-01-17T11:01:36.939Z,81.90
2023-01-17T11:04:38.055Z,82.00
2023-01-17T11:07:35.800Z,82.10
2023-01-17T11:10:07.211Z,82.10
2023-01-17T11:12:47.200Z,82.10
2023-01-17T11:15:23.635Z,82.20
2023-01-17T11:18:18.767Z,82.30
2023-01-17T11:20:51.638Z,82.30
2023-01-17T11:23:28.687Z,82.50
2023-01-17T11:26:10.578Z,82.60
2023-01-17T11:28:43.330Z,82.60
2023-01-17T11:31:18.326Z,82.60
2023-01-17T11:33:59.274Z,82.70
2023-01-17T11:36:32.478Z,82.60
2023-01-17T11:39:06.284Z,82.70
2023-01-17T11:44:29.007Z,82.90
2023-01-17T11:47:37.911Z,82.90
2023-01-17T11:53:46.306Z,83.00
2023-01-17T11:56:24.721Z,83.00
2023-01-17T11:59:11.722Z,83.10
2023-01-17T12:02:17.210Z,83.10
2023-01-17T12:05:00.465Z,83.20
2023-01-17T12:07:58.506Z,83.20
2023-01-17T12:10:45.346Z,83.30
2023-01-17T12:17:33.531Z,83.30
2023-01-17T12:20:24.648Z,83.40
2023-01-17T12:23:55.200Z,83.50
2023-01-17T12:27:03.533Z,83.50
2023-01-17T12:30:05.847Z,83.70
2023-01-17T12:32:52.176Z,83.50
2023-01-17T12:36:07.367Z,83.70
2023-01-17T12:38:42.588Z,83.70
2023-01-17T12:45:26.541Z,83.70
2023-01-17T12:48:12.604Z,83.70
2023-01-17T12:51:06.357Z,83.80
2023-01-17T12:53:44.396Z,83.80
2023-01-17T12:56:37.168Z,83.80
2023-01-17T12:59:17.555Z,83.90
2023-01-17T13:01:59.546Z,83.90
2023-01-17T13:04:58.062Z,83.90
2023-01-17T13:07:52.012Z,83.90
2023-01-17T13:13:40.871Z,83.90
2023-01-17T13:16:25.025Z,84.00
2023-01-17T13:18:57.712Z,84.00
2023-01-17T13:21:35.727Z,84.00
2023-01-17T13:24:48.350Z,84.00
2023-01-17T13:27:44.268Z,84.10
2023-01-17T13:30:27.842Z,84.20
2023-01-17T13:33:27.590Z,84.90
2023-01-17T13:36:18.727Z,84.20
2023-01-17T13:39:54.971Z,84.30
2023-01-17T13:42:31.488Z,84.20
2023-01-17T13:45:08.675Z,84.20
2023-01-17T13:48:27.271Z,84.20
2023-01-17T13:51:12.092Z,84.30
2023-01-17T13:53:48.176Z,84.30
2023-01-17T13:56:36.627Z,84.20
2023-01-17T13:59:28.292Z,85.10
2023-01-17T14:02:02.388Z,84.30
2023-01-17T14:05:24.871Z,84.30
2023-01-17T14:08:07.256Z,84.30
2023-01-17T14:10:44.062Z,84.40
2023-01-17T14:13:37.870Z,84.50
2023-01-17T14:16:34.041Z,84.40
2023-01-17T14:19:12.945Z,84.40
2023-01-17T14:21:45.639Z,84.50
2023-01-17T14:24:45.678Z,84.50
2023-01-17T14:30:24.973Z,84.50
2023-01-17T14:33:10.448Z,84.50
2023-01-17T14:35:52.194Z,84.50
2023-01-17T14:38:34.464Z,84.60
2023-01-17T14:41:15.801Z,84.60
2023-01-17T14:43:49.032Z,84.60
2023-01-17T14:46:36.725Z,84.70
2023-01-17T14:49:23.869Z,84.60
2023-01-17T14:52:08.139Z,84.70
2023-01-17T14:54:43.662Z,84.70
2023-01-17T14:57:33.766Z,84.90
2023-01-17T15:00:16.775Z,84.90
